createdAt,value
2022-08-05T00:03:32.578Z,54.78
2022-08-05T00:08:37.416Z,55.35
2022-08-05T00:13:45.816Z,55.03
2022-08-05T00:18:57.319Z,55.79
2022-08-05T00:24:10.677Z,56.14
2022-08-05T00:29:16.639Z,56.80
2022-08-05T00:34:56.408Z,56.16
2022-08-05T00:39:58.468Z,56.71
2022-08-05T00:45:08.880Z,56.84
2022-08-05T00:50:15.830Z,56.07
2022-08-05T00:55:19.915Z,56.74
2022-08-05T01:00:25.998Z,55.65
2022-08-05T01:05:30.357Z,55.37
2022-08-05T01:10:39.651Z,56.35
2022-08-05T01:15:55.226Z,57.20
2022-08-05T01:21:12.562Z,56.59
2022-08-05T01:26:41.672Z,56.66
2022-08-05T01:31:51.577Z,56.80
2022-08-05T01:37:02.978Z,56.54
2022-08-05T01:42:09.636Z,56.46
2022-08-05T01:47:18.917Z,57.02
2022-08-05T01:52:24.640Z,56.89
2022-08-05T01:58:29.782Z,56.32
2022-08-05T02:03:03.527Z,56.81
2022-08-05T02:08:08.176Z,57.14
2022-08-05T02:13:16.869Z,58.13
2022-08-05T02:18:34.231Z,58.14
2022-08-05T02:23:42.566Z,57.12
2022-08-05T02:28:49.508Z,57.04
2022-08-05T02:34:06.367Z,56.89
2022-08-05T02:39:17.140Z,57.29
2022-08-05T02:44:27.066Z,58.45
2022-08-05T02:49:37.916Z,58.13
2022-08-05T02:54:52.056Z,57.43
2022-08-05T02:59:57.699Z,56.89
2022-08-05T03:05:06.328Z,56.77
2022-08-05T03:10:13.338Z,57.93
2022-08-05T03:15:17.613Z,58.14
2022-08-05T03:20:23.631Z,57.53
2022-08-05T03:26:03.754Z,57.66
2022-08-05T03:30:55.241Z,58.09
2022-08-05T03:36:01.412Z,58.70
2022-08-05T03:41:11.080Z,58.50
2022-08-05T03:46:15.112Z,58.54
2022-08-05T03:52:49.029Z,58.30
2022-08-05T03:56:56.153Z,59.36
2022-08-05T04:02:04.560Z,59.80
2022-08-05T04:07:12.779Z,59.94
2022-08-05T04:12:23.591Z,60.63
2022-08-05T04:17:55.689Z,60.73
2022-08-05T04:22:55.032Z,59.94
2022-08-05T04:28:11.076Z,59.74
2022-08-05T04:33:16.406Z,59.58
2022-08-05T04:38:43.879Z,59.15
2022-08-05T04:43:55.059Z,59.51
2022-08-05T04:48:59.889Z,58.62
2022-08-05T04:54:05.658Z,57.14
2022-08-05T04:59:21.626Z,57.48
2022-08-05T05:04:29.869Z,56.66
2022-08-05T05:09:37.417Z,56.47
2022-08-05T05:14:49.396Z,56.24
2022-08-05T05:19:56.521Z,55.90
2022-08-05T05:25:02.434Z,55.39
2022-08-05T05:30:29.736Z,56.28
2022-08-05T05:35:37.909Z,56.14
2022-08-05T05:40:49.693Z,55.85
2022-08-05T05:45:55.977Z,55.44
2022-08-05T05:51:14.947Z,54.62
2022-08-05T05:56:26.195Z,54.79
2022-08-05T06:01:39.365Z,53.39
2022-08-05T06:06:48.743Z,53.32
2022-08-05T06:12:01.880Z,52.25
2022-08-05T06:17:22.087Z,51.69
2022-08-05T06:22:33.540Z,50.97
2022-08-05T06:28:11.727Z,50.56
2022-08-05T06:33:04.506Z,49.71
2022-08-05T06:38:14.213Z,49.29
2022-08-05T06:43:58.245Z,48.40
2022-08-05T06:48:56.349Z,47.81
2022-08-05T06:54:05.263Z,47.14
2022-08-05T06:59:14.589Z,46.11
2022-08-05T07:04:19.637Z,45.93
2022-08-05T07:09:24.874Z,45.67
2022-08-05T07:14:48.047Z,45.41
2022-08-05T07:25:53.943Z,42.26
2022-08-05T07:30:44.493Z,41.05
2022-08-05T07:36:02.052Z,40.83
2022-08-05T07:42:14.748Z,40.14
2022-08-05T07:46:48.486Z,39.84
2022-08-05T07:51:55.328Z,39.18
2022-08-05T07:57:18.022Z,38.84
2022-08-05T08:03:13.306Z,37.98
2022-08-05T08:08:00.188Z,37.07
2022-08-05T08:13:05.561Z,36.42
2022-08-05T08:18:14.336Z,35.56
2022-08-05T08:24:01.741Z,35.05
2022-08-05T08:28:59.495Z,34.26
2022-08-05T08:34:09.142Z,33.52
2022-08-05T08:39:14.878Z,32.69
2022-08-05T08:45:16.877Z,32.51
2022-08-05T08:50:12.823Z,32.80
2022-08-05T08:55:19.523Z,32.46
2022-08-05T09:00:36.551Z,32.79
2022-08-05T09:06:09.447Z,32.86
2022-08-05T09:11:08.638Z,31.72
2022-08-05T09:16:16.859Z,31.27
2022-08-05T09:22:22.029Z,30.50
2022-08-05T09:26:52.082Z,29.81
2022-08-05T09:32:40.812Z,29.72
2022-08-05T09:38:12.343Z,30.70
2022-08-05T09:42:56.897Z,30.85
2022-08-05T09:48:01.226Z,30.29
2022-08-05T09:53:06.915Z,30.39
2022-08-05T09:58:14.276Z,31.01
2022-08-05T10:03:18.736Z,30.60
2022-08-05T10:08:36.206Z,28.29
2022-08-05T10:13:47.262Z,27.66
2022-08-05T10:18:52.793Z,27.24
2022-08-05T10:23:59.457Z,27.38
2022-08-05T10:29:04.536Z,27.21
2022-08-05T10:34:09.849Z,27.00
2022-08-05T10:39:25.125Z,25.90
2022-08-05T10:44:46.690Z,25.26
2022-08-05T10:50:31.979Z,25.19
2022-08-05T10:55:38.575Z,25.25
2022-08-05T11:01:03.009Z,26.26
2022-08-05T11:06:15.532Z,26.91
2022-08-05T11:11:44.676Z,27.29
2022-08-05T11:17:57.233Z,27.40
2022-08-05T11:24:05.409Z,27.49
2022-08-05T11:29:11.957Z,27.47
2022-08-05T11:34:37.361Z,26.56
2022-08-05T11:39:55.435Z,27.63
2022-08-05T11:45:14.264Z,28.50
2022-08-05T11:50:27.601Z,28.40
2022-08-05T11:55:36.427Z,27.07
2022-08-05T12:00:44.312Z,26.38
2022-08-05T12:05:51.066Z,25.39
2022-08-05T12:10:59.669Z,25.37
2022-08-05T12:16:14.732Z,24.28
2022-08-05T12:21:21.498Z,24.09
2022-08-05T12:26:32.729Z,23.82
2022-08-05T12:31:41.522Z,23.92
2022-08-05T12:36:56.152Z,23.68
2022-08-05T12:42:03.613Z,23.62
2022-08-05T12:47:12.589Z,23.47
2022-08-05T12:52:25.573Z,23.13
2022-08-05T12:58:50.508Z,23.77
2022-08-05T13:03:04.392Z,23.48
2022-08-05T13:08:11.331Z,23.73
2022-08-05T13:14:05.546Z,23.88
2022-08-05T13:18:57.667Z,24.80
2022-08-05T13:24:02.965Z,26.50
2022-08-05T13:29:08.602Z,26.99
2022-08-05T13:34:25.649Z,26.61
2022-08-05T13:40:13.569Z,26.41
2022-08-05T13:44:56.123Z,25.18
2022-08-05T13:50:12.382Z,25.22
2022-08-05T13:55:40.791Z,24.84
2022-08-05T14:00:45.059Z,25.26
2022-08-05T14:06:25.827Z,25.48
2022-08-05T14:11:20.529Z,25.46
2022-08-05T14:16:26.445Z,24.66
2022-08-05T14:22:10.155Z,25.39
2022-08-05T14:27:17.155Z,25.51
2022-08-05T14:32:27.694Z,25.50
2022-08-05T14:37:45.204Z,24.82
2022-08-05T14:42:53.236Z,24.89
2022-08-05T14:48:04.033Z,25.48
2022-08-05T14:53:12.421Z,26.81
2022-08-05T14:58:17.570Z,26.86
2022-08-05T15:03:23.205Z,26.13
2022-08-05T15:08:57.542Z,27.49
2022-08-05T15:13:52.803Z,27.34
2022-08-05T15:18:56.954Z,27.54
2022-08-05T15:24:09.699Z,26.88
2022-08-05T15:29:15.387Z,27.69
2022-08-05T15:34:33.172Z,27.85
2022-08-05T15:40:59.682Z,27.49
2022-08-05T15:45:03.439Z,27.73
2022-08-05T15:50:15.328Z,27.96
2022-08-05T15:55:24.805Z,28.08
2022-08-05T16:00:51.027Z,28.08
2022-08-05T16:05:55.897Z,28.17
2022-08-05T16:11:01.561Z,28.44
2022-08-05T16:16:06.335Z,28.44
2022-08-05T16:21:11.745Z,29.15
2022-08-05T16:26:26.285Z,29.71
2022-08-05T16:31:56.415Z,30.00
2022-08-05T16:36:56.395Z,30.81
2022-08-05T16:42:13.689Z,30.37
2022-08-05T16:47:28.946Z,31.22
2022-08-05T16:52:46.021Z,31.60
2022-08-05T16:58:01.409Z,31.64
2022-08-05T17:03:15.295Z,30.55
2022-08-05T17:08:35.791Z,31.00
2022-08-05T17:13:49.926Z,31.19
2022-08-05T17:18:54.771Z,31.67
2022-08-05T17:24:04.959Z,32.71
2022-08-05T17:29:13.697Z,33.23
2022-08-05T17:34:17.764Z,34.02
2022-08-05T17:39:24.201Z,33.77
2022-08-05T17:44:35.687Z,33.86
2022-08-05T17:49:59.520Z,34.36
2022-08-05T17:55:03.969Z,34.26
2022-08-05T18:00:14.233Z,34.83
2022-08-05T18:05:18.879Z,35.42
2022-08-05T18:10:24.240Z,35.73
2022-08-05T18:15:31.226Z,36.26
2022-08-05T18:20:38.992Z,36.16
2022-08-05T18:25:45.210Z,36.64
2022-08-05T18:30:52.515Z,37.08
2022-08-05T18:36:04.314Z,37.58
2022-08-05T18:41:55.982Z,37.92
2022-08-05T18:46:37.217Z,38.09
2022-08-05T18:52:11.204Z,39.25
2022-08-05T18:57:17.485Z,39.57
2022-08-05T19:02:29.626Z,39.68
2022-08-05T19:07:45.861Z,39.66
2022-08-05T19:12:51.600Z,40.52
2022-08-05T19:18:10.156Z,40.93
2022-08-05T19:24:03.588Z,40.91
2022-08-05T19:28:41.491Z,41.71
2022-08-05T19:33:56.336Z,42.47
2022-08-05T19:39:02.410Z,42.75
2022-08-05T19:44:12.815Z,43.02
2022-08-05T19:49:20.332Z,43.68
2022-08-05T19:54:29.496Z,43.84
2022-08-05T20:00:00.766Z,44.26
2022-08-05T20:05:02.495Z,44.88
2022-08-05T20:10:13.596Z,44.93
2022-08-05T20:15:47.885Z,46.55
2022-08-05T20:20:48.194Z,48.01
2022-08-05T20:25:52.591Z,48.01
2022-08-05T20:30:57.953Z,48.76
2022-08-05T20:36:03.686Z,48.55
2022-08-05T20:41:09.641Z,48.81
2022-08-05T20:46:18.402Z,48.69
2022-08-05T20:51:30.794Z,48.93
2022-08-05T20:56:42.216Z,49.29
2022-08-05T21:01:47.234Z,49.40
2022-08-05T21:06:55.920Z,48.79
2022-08-05T21:12:10.395Z,48.85
2022-08-05T21:17:16.220Z,49.04
2022-08-05T21:22:23.790Z,48.90
2022-08-05T21:27:28.151Z,49.10
2022-08-05T21:32:43.059Z,48.74
2022-08-05T21:37:52.849Z,49.14
2022-08-05T21:42:59.166Z,49.98
2022-08-05T21:48:06.234Z,50.28
2022-08-05T21:53:16.734Z,50.51
2022-08-05T21:58:30.676Z,50.03
2022-08-05T22:03:52.379Z,51.22
2022-08-05T22:08:58.805Z,51.79
2022-08-05T22:14:35.803Z,50.74
2022-08-05T22:20:03.033Z,50.67
2022-08-05T22:25:21.085Z,51.67
2022-08-05T22:30:35.001Z,52.49
2022-08-05T22:35:49.276Z,51.96
2022-08-05T22:40:55.373Z,52.25
2022-08-05T22:45:59.762Z,53.21
2022-08-05T22:51:07.024Z,53.08
2022-08-05T22:56:12.852Z,52.81
2022-08-05T23:01:17.361Z,53.00
2022-08-05T23:06:26.276Z,53.12
2022-08-05T23:11:32.499Z,53.27
2022-08-05T23:16:53.999Z,52.91
2022-08-05T23:21:58.220Z,53.38
2022-08-05T23:27:04.939Z,54.21
2022-08-05T23:32:09.571Z,54.54
2022-08-05T23:37:14.874Z,55.09
2022-08-05T23:42:23.516Z,55.59
2022-08-05T23:47:33.524Z,54.58
2022-08-05T23:52:49.745Z,54.73
2022-08-05T23:57:57.842Z,53.95
